Thunder radar more information blitzortung!


Radar de pluja more information rain snow radar


Visita la nostra xarxa de llocs de meteo:

Template documentation
and downloads

And another site



No particular awareness of the weather is required.    There are no Weather-warnings

Pagina Historial Weather Underground text

Diari Resum Novembre 22, 2017 Unitats:  Mètric    Imperial   Tant
« Previous Dia
SegĂźent Dia »
Diari Setmana Mensual Anual Personalitzada
  Maxima: Minima: Media:
Temperatura: -17.8 °C -15.6 °C -11.4 °C
Punt de rosada: -17.8 °C -18.9 °C -14.4 °C
Humitat: Humidity % 59 % 69 %
Wind Speed: 0 km/h 0 km/h 5.6 km/h
RĂ fegues de vent: 0 km/h - -
Vent:- - SW
Pression baro: 0 hPa 34361.1 hPa -
Precipitacions: 0 mm    
Historical Graphs
 
 
Dades de taula per Novembre 22, 2017
Temps Temperatura Punt de rosada Pression baro Vent Wind Speed RĂ fegues de vent Humitat Rainfall Rate (Hourly)
-17.8 °C -17.8 °C 0 hPa Calm     Humidity % 0 mm
00:10 -15.2 °C -18.8 °C 34462.7 hPa Calm     63 % 0 mm
00:30 -15.3 °C -18.9 °C 34462.7 hPa Calm     63 % 0 mm
00:40 -15.4 °C -18.8 °C 34462.7 hPa Calm     64 % 0 mm
01:00 -15.4 °C -18.9 °C 34462.7 hPa Calm     64 % 0 mm
01:10 -15.4 °C -18.8 °C 34462.7 hPa Calm     65 % 0 mm
01:20 -15.4 °C -18.7 °C 34462.7 hPa Calm     65 % 0 mm
01:30 -15.4 °C -18.7 °C 34462.7 hPa WSW 2.6 km/h 2.6 km/h 65 % 0 mm
01:50 -15.5 °C -18.8 °C 34428.8 hPa Calm   5.1 km/h 65 % 0 mm
02:00 -15.6 °C -18.9 °C 34462.7 hPa Calm   2.6 km/h 65 % 0 mm
02:10 -15.6 °C -18.8 °C 34462.7 hPa Calm     66 % 0 mm
02:20 -15.6 °C -18.8 °C 34462.7 hPa Calm   2.6 km/h 66 % 0 mm
02:30 -15.6 °C -18.8 °C 34428.8 hPa Calm     66 % 0 mm
02:40 -15.4 °C -18.6 °C 34462.7 hPa Calm   2.6 km/h 67 % 0 mm
02:50 -15.3 °C -18.4 °C 34462.7 hPa Calm     67 % 0 mm
03:00 -15.4 °C -18.6 °C 34496.6 hPa Calm   2.6 km/h 66 % 0 mm
03:10 -15.4 °C -18.6 °C 34462.7 hPa Calm     66 % 0 mm
03:20 -15.2 °C -18.3 °C 34462.7 hPa Calm   2.6 km/h 67 % 0 mm
03:30 -15.1 °C -18.3 °C 34462.7 hPa SW 2.6 km/h 5.1 km/h 66 % 0 mm
03:50 -14.6 °C -17.9 °C 34462.7 hPa NE 2.6 km/h 7.7 km/h 66 % 0 mm
04:00 -14.2 °C -17.6 °C 34462.7 hPa NE 5.1 km/h 7.7 km/h 65 % 0 mm
04:10 -14 °C -17.4 °C 34462.7 hPa ENE 2.6 km/h 5.1 km/h 65 % 0 mm
04:20 -13.9 °C -17.3 °C 34462.7 hPa Calm   2.6 km/h 65 % 0 mm
04:30 -13.7 °C -17.1 °C 34462.7 hPa Calm   5.1 km/h 65 % 0 mm
04:50 -13.6 °C -17.3 °C 34462.7 hPa SSW 2.6 km/h 7.7 km/h 63 % 0 mm
10:55 -13.4 °C -17.1 °C 34462.7 hPa WSW 6 km/h 6 km/h 63 % 0 mm
11:05 -13.2 °C -16.8 °C 34496.6 hPa SW 6 km/h 6 km/h 63 % 0 mm
11:10 -12.9 °C -16.6 °C 34496.6 hPa ESE 3.1 km/h   63 % 0 mm
11:15 -12.6 °C -16.3 °C 34496.6 hPa Calm     63 % 0 mm
11:20 -12.1 °C -15.9 °C 34462.7 hPa South 3.1 km/h 3.1 km/h 63 % 0 mm
11:25 -11.8 °C -15.7 °C 34462.7 hPa SSW 3.1 km/h   62 % 0 mm
11:30 -11.4 °C -15.3 °C 34462.7 hPa SSW 3.1 km/h 3.1 km/h 62 % 0 mm
11:35 -11.2 °C -15.3 °C 34462.7 hPa Calm     61 % 0 mm
11:45 -10.7 °C -14.8 °C 34462.7 hPa ESE 5.1 km/h 5.1 km/h 61 % 0 mm
11:55 -10.6 °C -14.7 °C 34462.7 hPa NE 6 km/h 6 km/h 61 % 0 mm
12:05 -10.3 °C -14.4 °C 34462.7 hPa ESE 6 km/h 6 km/h 61 % 0 mm
12:10 -10.1 °C -14.2 °C 34462.7 hPa ESE 6 km/h 6 km/h 61 % 0 mm
12:15 -9.8 °C -13.9 °C 34462.7 hPa SW 6.3 km/h 6.3 km/h 61 % 0 mm
12:20 -9.6 °C -13.6 °C 34462.7 hPa SW 3.1 km/h 3.1 km/h 62 % 0 mm
12:25 -9.3 °C -13.2 °C 34462.7 hPa SW 7.6 km/h 7.6 km/h 63 % 0 mm
12:26 -9.3 °C -13.2 °C 34462.7 hPa SW 11.9 km/h 11.9 km/h 63 % 0 mm
12:31 -9.3 °C -13.2 °C 34462.7 hPa WSW 6.8 km/h 6.8 km/h 63 % 0 mm
12:36 -9.1 °C -13 °C 34462.7 hPa SSW 9 km/h 9 km/h 63 % 0 mm
12:41 -8.9 °C -12.9 °C 34462.7 hPa WSW 6 km/h 6 km/h 63 % 0 mm
12:56 -8.4 °C -12.4 °C 34428.8 hPa SW 9 km/h 9 km/h 63 % 0 mm
13:01 -8.3 °C -12.4 °C 34428.8 hPa West 11.9 km/h 11.9 km/h 62 % 0 mm
13:06 -8.4 °C -12.3 °C 34428.8 hPa South 15 km/h 15 km/h 63 % 0 mm
13:11 -8.3 °C -12.5 °C 34428.8 hPa South 6 km/h 6 km/h 61 % 0 mm
13:16 -8.1 °C -12.3 °C 34428.8 hPa SSW 9 km/h 9 km/h 61 % 0 mm
13:21 -8.1 °C -12.3 °C 34395 hPa SSW 9 km/h 9 km/h 61 % 0 mm
13:31 -8.3 °C -12.6 °C 34395 hPa WSW 9.3 km/h 9.3 km/h 61 % 0 mm
13:41 -8.2 °C -12.6 °C 34395 hPa South 15 km/h 15 km/h 60 % 0 mm
13:46 -8.1 °C -12.4 °C 34395 hPa South 11.9 km/h 11.9 km/h 60 % 0 mm
13:51 -8 °C -12.4 °C 34395 hPa SSE 11.9 km/h 11.9 km/h 60 % 0 mm
13:56 -8 °C -12.4 °C 34395 hPa South 11.9 km/h 11.9 km/h 60 % 0 mm
14:01 -7.9 °C -12.3 °C 34395 hPa SSW 15 km/h 15 km/h 60 % 0 mm
14:06 -7.9 °C -12.3 °C 34428.8 hPa South 11.9 km/h 11.9 km/h 60 % 0 mm
14:21 -7.9 °C -12.4 °C 34361.1 hPa West 15 km/h 15 km/h 59 % 0 mm
14:31 -7.7 °C -12.1 °C 34361.1 hPa WSW 11.9 km/h 11.9 km/h 60 % 0 mm
14:36 -7.7 °C -12.1 °C 34395 hPa WSW 11.9 km/h 11.9 km/h 60 % 0 mm
14:41 -7.8 °C -12.3 °C 34395 hPa SW 15 km/h 15 km/h 59 % 0 mm
14:51 -7.8 °C -12.2 °C 34395 hPa SW 6.8 km/h 6.8 km/h 60 % 0 mm
15:06 -7.7 °C -12.2 °C 34361.1 hPa SW 14 km/h 14 km/h 59 % 0 mm
15:11 -7.7 °C -12.3 °C 34361.1 hPa WSW 15 km/h 15 km/h 59 % 0 mm
15:16 -7.8 °C -12.3 °C 34361.1 hPa WSW 15 km/h 15 km/h 59 % 0 mm
15:21 -7.7 °C -12.3 °C 34395 hPa West 15 km/h 15 km/h 59 % 0 mm
15:26 -7.7 °C -12.3 °C 34395 hPa SW 15 km/h 15 km/h 59 % 0 mm
15:31 -7.7 °C -12.3 °C 34395 hPa SSW 20.9 km/h 20.9 km/h 59 % 0 mm
15:36 -7.7 °C -12.3 °C 34395 hPa South 14.5 km/h 14.5 km/h 59 % 0 mm
15:41 -7.7 °C -12.3 °C 34395 hPa WSW 6 km/h 6 km/h 59 % 0 mm
15:46 -7.6 °C -12.1 °C 34395 hPa SW 6 km/h 6 km/h 59 % 0 mm
15:51 -7.5 °C -12.1 °C 34395 hPa SSW 6 km/h 6 km/h 59 % 0 mm
15:56 -7.7 °C -12.2 °C 34395 hPa SW 15 km/h 15 km/h 59 % 0 mm
16:06 -7.9 °C -12.4 °C 34395 hPa SSW 19.2 km/h 19.2 km/h 59 % 0 mm
16:11 -8 °C -12.5 °C 34395 hPa WSW 9 km/h 9 km/h 59 % 0 mm
16:21 -7.9 °C -12.3 °C 34395 hPa WSW 15 km/h 15 km/h 60 % 0 mm
16:22 -7.9 °C -12.3 °C 34395 hPa SSW 15 km/h 15 km/h 60 % 0 mm
16:32 -8.2 °C -12.6 °C 34395 hPa WSW 6 km/h 6 km/h 60 % 0 mm
16:37 -8.2 °C -12.6 °C 34395 hPa SSW 9 km/h 9 km/h 60 % 0 mm
16:42 -8.3 °C -12.6 °C 34395 hPa SW 15 km/h 15 km/h 60 % 0 mm
16:52 -8.5 °C -12.7 °C 34395 hPa SW 6 km/h 6 km/h 61 % 0 mm
17:02 -8.7 °C -12.7 °C 34395 hPa SW 6 km/h 6.8 km/h 62 % 0 mm
17:07 -8.8 °C -12.8 °C 34395 hPa SW 6 km/h   62 % 0 mm
17:12 -8.9 °C -12.8 °C 34395 hPa SW 8.5 km/h 8.5 km/h 63 % 0 mm
17:17 -9.1 °C -12.9 °C 34395 hPa WSW 6 km/h 6 km/h 63 % 0 mm
17:22 -9.2 °C -13.1 °C 34395 hPa SW 9 km/h 9 km/h 63 % 0 mm
17:27 -9.3 °C -13.1 °C 34395 hPa WSW 6 km/h 6 km/h 64 % 0 mm
17:37 -9.6 °C -13.2 °C 34395 hPa WSW 6 km/h 6 km/h 65 % 0 mm
17:42 -9.6 °C -13.2 °C 34395 hPa WNW 3.7 km/h 4.2 km/h 65 % 0 mm
17:52 -9.8 °C -13.3 °C 34395 hPa WSW 6 km/h 6 km/h 66 % 0 mm
18:02 -9.9 °C -13.2 °C 34428.8 hPa WSW 6 km/h 6 km/h 67 % 0 mm
18:07 -10 °C -13.4 °C 34428.8 hPa West 6 km/h 6 km/h 67 % 0 mm
18:17 -10 °C -13.1 °C 34428.8 hPa WSW 9 km/h 9 km/h 69 % 0 mm
18:22 -10.1 °C -13.2 °C 34428.8 hPa WSW 9 km/h 9 km/h 69 % 0 mm
18:27 -10.1 °C -13.1 °C 34428.8 hPa WNW 6 km/h 6 km/h 70 % 0 mm
18:32 -10.2 °C -13.2 °C 34395 hPa WNW 9 km/h 9 km/h 70 % 0 mm
18:37 -10.3 °C -13.2 °C 34395 hPa South 11.1 km/h 11.1 km/h 71 % 0 mm
18:47 -10.4 °C -13.2 °C 34428.8 hPa WSW 3.7 km/h 5.1 km/h 72 % 0 mm
18:52 -10.5 °C -13.1 °C 34428.8 hPa SW 6.8 km/h 6.8 km/h 73 % 0 mm
18:57 -10.6 °C -13.2 °C 34428.8 hPa WSW 6 km/h 6 km/h 73 % 0 mm
19:07 -10.6 °C -13.2 °C 34428.8 hPa WSW 6.8 km/h 6.8 km/h 73 % 0 mm
19:17 -10.7 °C -13.2 °C 34428.8 hPa SW 11.9 km/h 11.9 km/h 74 % 0 mm
19:37 -10.9 °C -13.2 °C 34428.8 hPa WSW 7.6 km/h 7.6 km/h 76 % 0 mm
19:38 -10.9 °C -13.2 °C 34428.8 hPa West 6.3 km/h 6.3 km/h 76 % 0 mm
19:43 -10.9 °C -13.2 °C 34428.8 hPa West 6 km/h 6 km/h 76 % 0 mm
19:45 -14 °C -15.5 °C 34428.8 hPa Calm     83 % 0 mm
19:53 -11.1 °C -13.3 °C 34428.8 hPa SW 6 km/h 6 km/h 76 % 0 mm
19:55 -14 °C -15.4 °C 34462.7 hPa SW 2.6 km/h 5.1 km/h 84 % 0 mm
19:58 -11.1 °C -13.4 °C 34428.8 hPa WSW 7.6 km/h 7.6 km/h 76 % 0 mm
20:03 -11.2 °C -13.4 °C 34428.8 hPa WSW 6.8 km/h 6.8 km/h 76 % 0 mm
20:05 -14 °C -15.4 °C 34462.7 hPa Calm     84 % 0 mm
20:15 -13.9 °C -15.3 °C 34462.7 hPa Calm   2.6 km/h 84 % 0 mm
20:18 -11.2 °C -13.4 °C 34395 hPa SW 6 km/h 6 km/h 77 % 0 mm
20:23 -11.3 °C -13.3 °C 34395 hPa WSW 6 km/h 6 km/h 78 % 0 mm
20:25 -14 °C -15.4 °C 34462.7 hPa Calm     84 % 0 mm
20:35 -14 °C -15.4 °C 34462.7 hPa Calm     84 % 0 mm
20:43 -11.3 °C -13.3 °C 34395 hPa WSW 9 km/h 9 km/h 78 % 0 mm
20:45 -14.3 °C -15.7 °C 34462.7 hPa Calm   2.6 km/h 84 % 0 mm
20:53 -11.3 °C -13.3 °C 34428.8 hPa SW 3.1 km/h   79 % 0 mm
20:58 -11.3 °C -13.3 °C 34428.8 hPa SW 6.3 km/h 6.3 km/h 79 % 0 mm
21:05 -14.4 °C -15.8 °C 34428.8 hPa Calm   2.6 km/h 84 % 0 mm
21:08 -11.4 °C -13.4 °C 34428.8 hPa WSW 6 km/h 6 km/h 79 % 0 mm
21:15 -14.4 °C -15.9 °C 34462.7 hPa WSW 5.1 km/h 5.1 km/h 83 % 0 mm
21:18 -11.5 °C -13.3 °C 34428.8 hPa West 3.1 km/h   80 % 0 mm
21:25 -14.6 °C -16.1 °C 34462.7 hPa Calm   5.1 km/h 83 % 0 mm
21:28 -11.6 °C -13.4 °C 34428.8 hPa Calm     80 % 0 mm
21:33 -11.6 °C -13.4 °C 34428.8 hPa Calm     80 % 0 mm
21:34 -11.6 °C -13.4 °C 34428.8 hPa Calm     81 % 0 mm
21:35 -14.6 °C -16.1 °C 34462.7 hPa SW 5.1 km/h 5.1 km/h 83 % 0 mm
21:44 -11.6 °C -13.4 °C 34428.8 hPa Calm     80 % 0 mm
21:49 -11.6 °C -13.3 °C 34428.8 hPa Calm     81 % 0 mm
21:54 -11.5 °C -13.3 °C 34428.8 hPa WNW 6 km/h 6 km/h 80 % 0 mm
21:55 -14.4 °C -15.8 °C 34462.7 hPa Calm     84 % 0 mm
21:59 -11.6 °C -13.4 °C 34428.8 hPa North 3.7 km/h   80 % 0 mm
22:04 -11.7 °C -13.4 °C 34428.8 hPa Calm     81 % 0 mm
22:05 -14.3 °C -15.6 °C 34462.7 hPa Calm   5.1 km/h 85 % 0 mm
22:09 -11.7 °C -13.6 °C 34428.8 hPa Calm     80 % 0 mm
22:15 -14.2 °C -15.5 °C 34462.7 hPa NNW 2.6 km/h 5.1 km/h 85 % 0 mm
22:24 -11.9 °C -13.6 °C 34428.8 hPa Calm     81 % 0 mm
22:25 -14.2 °C -15.4 °C 34462.7 hPa Calm   2.6 km/h 85 % 0 mm
22:29 -12 °C -13.8 °C 34428.8 hPa West 6 km/h 6 km/h 80 % 0 mm
22:34 -12 °C -13.8 °C 34428.8 hPa WSW 6 km/h 6 km/h 80 % 0 mm
22:39 -12 °C -13.8 °C 34428.8 hPa WSW 6 km/h 6 km/h 80 % 0 mm
22:44 -12.1 °C -13.8 °C 34428.8 hPa SW 3.7 km/h 3.7 km/h 81 % 0 mm
22:55 -14.6 °C -15.9 °C 34462.7 hPa SW 5.1 km/h 7.7 km/h 84 % 0 mm
22:59 -12.4 °C -14.2 °C 34462.7 hPa SW 3.1 km/h 3.1 km/h 80 % 0 mm
23:04 -12.4 °C -14.2 °C 34462.7 hPa SSE 3.1 km/h   81 % 0 mm
23:05 -14.7 °C -16.2 °C 34462.7 hPa SW 5.1 km/h 10.3 km/h 83 % 0 mm
23:09 -12.5 °C -14.2 °C 34462.7 hPa WSW 3.7 km/h 3.7 km/h 81 % 0 mm
23:15 -14.8 °C -16.3 °C 34496.6 hPa SW 5.1 km/h 7.7 km/h 83 % 0 mm
23:19 -12.6 °C -14.3 °C 34462.7 hPa Calm     81 % 0 mm
23:24 -12.7 °C -14.4 °C 34462.7 hPa SW 6 km/h 6 km/h 81 % 0 mm
23:25 -14.7 °C -16.1 °C 34462.7 hPa WSW 2.6 km/h 5.1 km/h 84 % 0 mm
23:29 -12.7 °C -14.6 °C 34462.7 hPa SW 7.6 km/h 7.6 km/h 80 % 0 mm
23:34 -12.8 °C -14.6 °C 34462.7 hPa SW 6 km/h 6 km/h 80 % 0 mm
23:35 -14.6 °C -15.9 °C 34462.7 hPa Calm   2.6 km/h 85 % 0 mm
23:45 -14.2 °C -15.4 °C 34462.7 hPa West 2.6 km/h 5.1 km/h 85 % 0 mm
23:55 -13.9 °C -15.2 °C 34462.7 hPa Calm   5.1 km/h 85 % 0 mm
23:59 -13.1 °C -14.7 °C 34462.7 hPa NW 6 km/h 6 km/h 82 % 0 mm
Meteo Sesrovires
Elogis d' Weather Underground - 1.5 mb

Guio original per  Jim McMurry - jmcmurry@mwt.net Adaptat per a la plantilla per  Wim van der Kuil - Leuven-Template.eu

Trobareu la nostra informacio del temps tambe a:

Weather Underground

AWEKAS